6PS2 weather

Stouffers Heliport
King of Prussia, Pennsylvania, United States

Public forecast

Using degrees Fahrenheit for public forecast. Weather courtesy of forecast.io.

Closest aviation weather report (METAR) to Stouffers Heliport

Closest report is Wings Field, 7.2 nm (13.3 km) ENE. Retrieved 2020/07/04 21:35 UTC (0 seconds ago):

KLOM 042135Z AUTO 00000KT 10SM SCT065 SCT085 SCT120 30/18 A2990 RMK AO2 T02980175

Closest aviation forecast (TAF) to Stouffers Heliport

Closest forecast is Philadelphia International Airport, 15.1 nm (28.0 km) SSE. Retrieved 2020/07/04 18:23 UTC (3 hours ago):

TAF KPHL 041720Z 0418/0524 10006KT P6SM BKN045 FM042100 17003KT P6SM VCTS SCT045CB BKN080 FM050000 18003KT P6SM SCT080 FM050400 VRB03KT P6SM SCT080 FM051100 30005KT P6SM SCT080 FM052200 24006KT P6SM FEW100